createdAt,value
2018-09-11T00:01:14.607Z,4.63
2018-09-11T00:03:49.043Z,5.10
2018-09-11T00:06:29.798Z,5.47
2018-09-11T00:09:00.508Z,5.43
2018-09-11T00:11:44.228Z,5.40
2018-09-11T00:14:18.342Z,4.53
2018-09-11T00:16:48.166Z,4.80
2018-09-11T00:19:22.841Z,4.30
2018-09-11T00:21:57.206Z,5.30
2018-09-11T00:24:38.887Z,5.20
2018-09-11T00:27:21.694Z,5.63
2018-09-11T00:32:43.679Z,5.37
2018-09-11T00:35:29.230Z,5.60
2018-09-11T00:37:58.042Z,5.27
2018-09-11T00:40:28.890Z,5.43
2018-09-11T00:42:57.666Z,5.67
2018-09-11T00:45:28.566Z,5.13
2018-09-11T00:50:52.912Z,4.73
2018-09-11T00:53:25.286Z,5.23
2018-09-11T00:56:13.478Z,5.20
2018-09-11T00:58:48.482Z,4.93
2018-09-11T01:01:27.337Z,4.83
2018-09-11T01:04:01.594Z,5.40
2018-09-11T01:06:50.595Z,5.37
2018-09-11T01:09:20.383Z,5.60
2018-09-11T01:12:06.831Z,5.33
2018-09-11T01:14:38.742Z,5.47
2018-09-11T01:17:11.598Z,5.57
2018-09-11T01:19:40.422Z,5.40
2018-09-11T01:22:10.223Z,5.30
2018-09-11T01:24:39.002Z,5.43
2018-09-11T01:27:19.822Z,5.60
2018-09-11T01:30:11.022Z,4.90
2018-09-11T01:32:41.810Z,6.07
2018-09-11T01:35:17.910Z,4.60
2018-09-11T01:37:57.658Z,5.73
2018-09-11T01:40:38.490Z,5.60
2018-09-11T01:46:17.687Z,5.57
2018-09-11T01:48:49.638Z,5.20
2018-09-11T01:51:19.671Z,6.27
2018-09-11T01:53:49.411Z,5.63
2018-09-11T01:56:21.303Z,5.67
2018-09-11T01:58:54.363Z,5.10
2018-09-11T02:01:28.606Z,5.90
2018-09-11T02:04:22.310Z,5.43
2018-09-11T02:06:58.439Z,5.23
2018-09-11T02:09:47.751Z,6.27
2018-09-11T02:12:22.766Z,5.33
2018-09-11T02:14:51.591Z,5.70
2018-09-11T02:17:24.894Z,5.70
2018-09-11T02:20:07.703Z,5.77
2018-09-11T02:22:42.163Z,5.47
2018-09-11T02:25:17.476Z,5.83
2018-09-11T02:30:57.134Z,5.23
2018-09-11T02:33:34.555Z,5.43
2018-09-11T02:36:03.680Z,5.40
2018-09-11T02:38:38.079Z,5.70
2018-09-11T02:41:08.211Z,5.50
2018-09-11T02:43:37.080Z,6.10
2018-09-11T02:49:02.521Z,5.50
2018-09-11T02:51:35.215Z,5.70
2018-09-11T03:00:03.016Z,6.37
2018-09-11T03:02:32.818Z,5.87
2018-09-11T03:05:04.118Z,6.40
2018-09-11T03:07:35.894Z,6.50
2018-09-11T03:10:07.763Z,5.60
2018-09-11T03:12:36.523Z,6.93
2018-09-11T03:15:06.359Z,5.67
2018-09-11T03:17:40.160Z,5.83
2018-09-11T03:23:16.406Z,5.60
2018-09-11T03:25:48.186Z,5.93
2018-09-11T03:28:16.999Z,6.03
2018-09-11T03:30:46.782Z,5.57
2018-09-11T03:33:33.594Z,6.43
2018-09-11T03:36:05.587Z,5.97
2018-09-11T03:38:38.454Z,5.83
2018-09-11T03:41:12.782Z,6.80
2018-09-11T03:43:43.613Z,6.10
2018-09-11T03:46:12.383Z,6.97
2018-09-11T03:48:49.412Z,6.37
2018-09-11T03:51:24.938Z,5.60
2018-09-11T03:53:53.695Z,5.83
2018-09-11T03:56:37.875Z,6.67
2018-09-11T03:59:36.386Z,6.27
2018-09-11T04:02:13.112Z,6.80
2018-09-11T04:04:59.794Z,6.77
2018-09-11T04:07:36.002Z,6.20
2018-09-11T04:10:08.242Z,7.40
2018-09-11T04:12:37.026Z,7.40
2018-09-11T04:15:20.898Z,6.50
2018-09-11T04:17:52.910Z,6.40
2018-09-11T04:20:27.714Z,6.80
2018-09-11T04:23:06.202Z,6.63
2018-09-11T04:25:38.473Z,6.83
2018-09-11T04:28:07.242Z,6.90
2018-09-11T04:30:52.358Z,6.80
2018-09-11T04:33:28.534Z,7.00
2018-09-11T04:36:03.438Z,7.17
2018-09-11T04:41:26.790Z,8.57
2018-09-11T04:43:57.618Z,8.10
2018-09-11T04:46:26.422Z,8.70
2018-09-11T04:49:05.663Z,8.27
2018-09-11T04:51:38.130Z,8.30
2018-09-11T04:54:07.917Z,8.40
2018-09-11T04:56:47.861Z,8.23
2018-09-11T04:59:17.678Z,8.70
2018-09-11T05:01:58.622Z,9.00
2018-09-11T05:04:30.494Z,8.53
2018-09-11T05:07:05.854Z,8.93
2018-09-11T05:09:39.454Z,9.30
2018-09-11T05:12:15.882Z,8.57
2018-09-11T05:15:03.402Z,8.80
2018-09-11T05:17:37.556Z,8.00
2018-09-11T05:23:22.705Z,8.13
2018-09-11T05:26:12.478Z,6.53
2018-09-11T05:31:38.874Z,7.73
2018-09-11T05:34:17.230Z,8.00
2018-09-11T05:36:57.066Z,7.73
2018-09-11T05:39:32.213Z,7.57
2018-09-11T05:42:06.509Z,7.30
2018-09-11T05:44:36.294Z,7.77
2018-09-11T05:47:11.889Z,7.50
2018-09-11T05:49:45.280Z,7.17
2018-09-11T05:52:21.533Z,7.57
2018-09-11T05:55:05.011Z,10.43
2018-09-11T05:57:57.837Z,9.00
2018-09-11T06:00:37.870Z,9.00
2018-09-11T06:03:06.841Z,7.60
2018-09-11T06:05:48.227Z,7.50
2018-09-11T06:08:17.797Z,6.30
2018-09-11T06:10:49.797Z,7.57
2018-09-11T06:13:36.737Z,7.20
2018-09-11T06:16:09.511Z,7.50
2018-09-11T06:18:38.249Z,7.03
2018-09-11T06:21:11.641Z,6.63
2018-09-11T06:23:46.005Z,6.60
2018-09-11T06:26:20.838Z,6.30
2018-09-11T06:28:53.509Z,6.83
2018-09-11T06:31:25.377Z,6.47
2018-09-11T06:33:58.005Z,6.00
2018-09-11T06:36:37.381Z,6.57
2018-09-11T06:39:12.058Z,6.17
2018-09-11T06:41:42.766Z,6.50
2018-09-11T06:44:12.516Z,6.70
2018-09-11T06:46:59.343Z,6.00
2018-09-11T06:49:36.925Z,5.23
2018-09-11T06:52:09.713Z,5.70
2018-09-11T06:54:38.494Z,5.40
2018-09-11T06:57:11.017Z,4.83
2018-09-11T06:59:40.774Z,5.50
2018-09-11T07:02:14.737Z,5.20
2018-09-11T07:04:43.473Z,5.63
2018-09-11T07:07:31.869Z,5.70
2018-09-11T07:10:10.689Z,5.40
2018-09-11T07:12:39.421Z,4.63
2018-09-11T07:15:32.030Z,5.50
2018-09-11T07:18:01.777Z,4.80
2018-09-11T07:20:36.869Z,5.10
2018-09-11T07:23:07.909Z,4.23
2018-09-11T07:25:36.669Z,5.20
2018-09-11T07:28:25.030Z,4.57
2018-09-11T07:30:53.973Z,3.90
2018-09-11T07:33:22.789Z,4.87
2018-09-11T07:35:55.326Z,5.20
2018-09-11T07:38:29.046Z,4.33
2018-09-11T07:41:10.309Z,4.63
2018-09-11T07:43:39.094Z,4.17
2018-09-11T07:46:08.798Z,4.23
2018-09-11T07:48:37.786Z,4.50
2018-09-11T07:51:06.894Z,3.97
2018-09-11T07:53:37.645Z,4.27
2018-09-11T07:56:11.077Z,4.10
2018-09-11T07:58:44.334Z,4.27
2018-09-11T08:01:35.262Z,3.70
2018-09-11T08:04:09.770Z,3.47
2018-09-11T08:06:38.563Z,3.60
2018-09-11T08:09:16.906Z,3.37
2018-09-11T08:11:46.699Z,3.83
2018-09-11T08:14:15.470Z,3.07
2018-09-11T08:16:44.269Z,3.50
2018-09-11T08:19:13.050Z,3.53
2018-09-11T08:21:45.762Z,3.37
2018-09-11T08:24:14.498Z,3.53
2018-09-11T08:26:51.994Z,4.03
2018-09-11T08:29:28.425Z,3.90
2018-09-11T08:32:14.554Z,3.40
2018-09-11T08:34:50.122Z,3.73
2018-09-11T08:37:21.870Z,3.17
2018-09-11T08:39:58.178Z,3.33
2018-09-11T08:42:28.890Z,3.40
2018-09-11T08:45:10.422Z,3.10
2018-09-11T08:47:43.206Z,3.30
2018-09-11T08:50:24.074Z,3.30
2018-09-11T08:52:53.812Z,2.90
2018-09-11T08:55:30.550Z,3.53
2018-09-11T08:58:03.718Z,3.10
2018-09-11T09:00:33.450Z,3.00
2018-09-11T09:03:03.190Z,2.80
2018-09-11T09:05:37.474Z,3.97
2018-09-11T09:08:06.330Z,2.77
2018-09-11T09:10:37.054Z,3.10
2018-09-11T09:13:10.655Z,2.53
2018-09-11T09:15:42.571Z,2.50
2018-09-11T09:18:35.402Z,2.57
2018-09-11T09:21:27.230Z,3.33
2018-09-11T09:23:57.941Z,2.70
2018-09-11T09:26:36.785Z,2.73
2018-09-11T09:29:21.986Z,3.00
2018-09-11T09:32:02.330Z,2.93
2018-09-11T09:34:33.350Z,2.70
2018-09-11T09:37:06.488Z,3.03
2018-09-11T09:39:35.302Z,3.37
2018-09-11T09:42:29.158Z,2.83
2018-09-11T09:45:03.794Z,3.10
2018-09-11T09:47:32.575Z,3.27
2018-09-11T09:50:13.632Z,2.70
2018-09-11T09:52:42.334Z,2.57
2018-09-11T09:55:12.039Z,2.70
2018-09-11T09:57:45.837Z,2.73
2018-09-11T10:00:18.798Z,2.87
2018-09-11T10:02:47.522Z,3.37
2018-09-11T10:05:35.317Z,3.00
2018-09-11T10:08:06.137Z,2.70
2018-09-11T10:10:34.982Z,3.10
2018-09-11T10:13:09.482Z,2.83
2018-09-11T10:15:38.200Z,2.97
2018-09-11T10:18:11.073Z,2.87
2018-09-11T10:20:45.767Z,2.50
2018-09-11T10:23:24.485Z,2.60
2018-09-11T10:26:00.205Z,3.00
2018-09-11T10:28:36.834Z,2.70
2018-09-11T10:34:06.496Z,3.07
2018-09-11T10:36:37.297Z,2.60
2018-09-11T10:39:20.494Z,2.53
2018-09-11T10:41:49.229Z,2.60
2018-09-11T10:44:21.101Z,2.60
2018-09-11T10:46:49.850Z,2.90
2018-09-11T10:49:21.701Z,2.53
2018-09-11T10:51:52.469Z,2.93
2018-09-11T10:54:26.898Z,3.17
2018-09-11T10:57:16.326Z,2.97
2018-09-11T10:59:47.068Z,3.20
2018-09-11T11:02:17.802Z,2.73
2018-09-11T11:04:47.526Z,2.27
2018-09-11T11:07:19.470Z,2.60
2018-09-11T11:09:49.278Z,2.73
2018-09-11T11:12:23.134Z,2.80
2018-09-11T11:14:59.364Z,2.67
2018-09-11T11:17:28.110Z,2.40
2018-09-11T11:19:56.934Z,2.70
2018-09-11T11:22:27.741Z,2.10
2018-09-11T11:24:56.554Z,2.30
2018-09-11T11:27:30.989Z,2.00
2018-09-11T11:30:06.277Z,2.30
2018-09-11T11:32:40.570Z,2.53
2018-09-11T11:35:13.462Z,2.47
2018-09-11T11:37:44.210Z,2.23
2018-09-11T11:40:28.994Z,2.57
2018-09-11T11:42:57.802Z,2.90
2018-09-11T11:45:27.538Z,2.20
2018-09-11T11:47:57.313Z,2.10
2018-09-11T11:50:26.122Z,2.77
2018-09-11T11:52:54.894Z,2.60
2018-09-11T11:55:33.076Z,2.13
2018-09-11T11:58:11.245Z,2.50
2018-09-11T12:00:39.969Z,2.60
2018-09-11T12:03:13.370Z,2.97
2018-09-11T12:05:56.153Z,2.40
2018-09-11T12:08:36.497Z,2.37
2018-09-11T12:11:06.318Z,2.20
2018-09-11T12:13:36.075Z,2.40
2018-09-11T12:16:11.150Z,2.13
2018-09-11T12:18:39.981Z,2.40
2018-09-11T12:21:09.701Z,2.27
2018-09-11T12:23:38.418Z,1.80
2018-09-11T12:26:08.229Z,1.90
2018-09-11T12:28:37.005Z,1.83
2018-09-11T12:31:15.705Z,2.10
2018-09-11T12:33:48.189Z,2.00
2018-09-11T12:36:20.079Z,1.80
2018-09-11T12:39:11.867Z,2.23
2018-09-11T12:41:40.690Z,2.03
2018-09-11T12:44:15.218Z,2.47
2018-09-11T12:46:49.385Z,2.40
2018-09-11T12:49:18.942Z,2.23
2018-09-11T12:51:54.198Z,2.23
2018-09-11T12:54:26.686Z,2.17
2018-09-11T12:56:56.453Z,1.97
2018-09-11T12:59:26.165Z,2.73
2018-09-11T13:01:55.871Z,2.37
2018-09-11T13:04:30.458Z,2.17
2018-09-11T13:07:06.754Z,1.93
2018-09-11T13:09:35.513Z,2.23
2018-09-11T13:12:09.986Z,2.20
2018-09-11T13:14:38.786Z,2.00
2018-09-11T13:17:09.502Z,2.40
2018-09-11T13:19:38.282Z,2.20
2018-09-11T13:22:07.006Z,2.30
2018-09-11T13:24:36.817Z,2.83
2018-09-11T13:27:13.917Z,2.80
2018-09-11T13:29:55.093Z,2.50
2018-09-11T13:32:35.473Z,2.47
2018-09-11T13:35:08.806Z,2.60
2018-09-11T13:37:37.533Z,2.10
2018-09-11T13:40:11.922Z,2.80
2018-09-11T13:42:40.785Z,2.20
2018-09-11T13:45:11.533Z,2.40
2018-09-11T13:47:41.338Z,2.50
2018-09-11T13:50:13.746Z,2.50
2018-09-11T13:52:47.761Z,2.50
2018-09-11T13:55:19.589Z,2.27
2018-09-11T13:57:53.345Z,2.47
2018-09-11T14:00:24.106Z,2.10
2018-09-11T14:02:53.825Z,2.40
2018-09-11T14:05:30.409Z,2.60
2018-09-11T14:07:59.217Z,2.37
2018-09-11T14:10:28.989Z,2.90
2018-09-11T14:13:18.608Z,2.30
2018-09-11T14:15:54.954Z,2.20
2018-09-11T14:18:33.594Z,2.33
2018-09-11T14:21:08.197Z,2.67
2018-09-11T14:23:36.929Z,2.43
2018-09-11T14:26:05.653Z,2.10
2018-09-11T14:28:36.521Z,2.20
2018-09-11T14:31:11.185Z,2.17
2018-09-11T14:33:41.069Z,2.17
2018-09-11T14:36:13.814Z,2.77
2018-09-11T14:38:50.153Z,2.10
2018-09-11T14:41:25.944Z,2.07
2018-09-11T14:44:07.301Z,2.63
2018-09-11T14:46:36.250Z,2.53
2018-09-11T14:49:06.130Z,1.80
2018-09-11T14:51:34.841Z,1.97
2018-09-11T14:54:03.681Z,2.03
2018-09-11T14:56:36.045Z,1.73
2018-09-11T15:02:01.685Z,2.37
2018-09-11T15:04:31.520Z,2.30
2018-09-11T15:07:12.325Z,2.43
2018-09-11T15:09:42.106Z,2.57
2018-09-11T15:12:22.469Z,2.67
2018-09-11T15:15:01.232Z,2.67
2018-09-11T15:17:30.061Z,2.33
2018-09-11T15:19:58.839Z,2.20
2018-09-11T15:22:27.617Z,2.50
2018-09-11T15:24:59.673Z,2.17
2018-09-11T15:27:33.405Z,2.57
2018-09-11T15:30:02.164Z,2.43
2018-09-11T15:32:30.884Z,8.10
2018-09-11T15:35:00.269Z,2.83
2018-09-11T15:37:36.141Z,2.60
2018-09-11T15:40:07.241Z,2.80
2018-09-11T15:42:36.029Z,3.33
2018-09-11T15:45:10.034Z,4.87
2018-09-11T15:47:38.765Z,4.70
2018-09-11T15:50:10.906Z,2.43
2018-09-11T15:52:52.017Z,6.33
2018-09-11T15:55:30.321Z,2.47
2018-09-11T15:58:12.965Z,2.50
2018-09-11T16:00:41.713Z,2.13
2018-09-11T16:03:11.533Z,2.47
2018-09-11T16:05:43.371Z,2.10
2018-09-11T16:08:12.141Z,2.80
2018-09-11T16:13:35.049Z,2.37
2018-09-11T16:16:04.829Z,2.70
2018-09-11T16:18:35.733Z,2.20
2018-09-11T16:21:04.612Z,2.40
2018-09-11T16:23:44.545Z,2.37
2018-09-11T16:26:13.285Z,2.17
2018-09-11T16:28:44.021Z,2.87
2018-09-11T16:31:18.107Z,2.33
2018-09-11T16:33:50.849Z,2.43
2018-09-11T16:36:19.569Z,2.30
2018-09-11T16:38:51.661Z,2.47
2018-09-11T16:41:23.613Z,2.40
2018-09-11T16:43:53.465Z,2.60
2018-09-11T16:46:22.229Z,2.10
2018-09-11T16:49:05.277Z,2.87
2018-09-11T16:51:34.121Z,2.40
2018-09-11T16:54:04.143Z,3.60
2018-09-11T16:56:33.017Z,2.77
2018-09-11T16:59:05.105Z,2.30
2018-09-11T17:01:34.839Z,3.20
2018-09-11T17:04:11.028Z,2.40
2018-09-11T17:06:46.757Z,2.83
2018-09-11T17:09:16.493Z,2.37
2018-09-11T17:11:45.325Z,2.13
2018-09-11T17:14:17.785Z,2.40
2018-09-11T17:16:49.333Z,2.60
2018-09-11T17:19:21.465Z,2.73
2018-09-11T17:21:50.204Z,2.27
2018-09-11T17:24:19.917Z,2.47
2018-09-11T17:26:51.885Z,2.60
2018-09-11T17:29:41.097Z,2.60
2018-09-11T17:32:09.943Z,2.63
2018-09-11T17:34:39.713Z,2.60
2018-09-11T17:37:09.481Z,2.80
2018-09-11T17:39:38.252Z,2.40
2018-09-11T17:45:02.702Z,5.70
2018-09-11T17:47:36.043Z,2.30
2018-09-11T17:50:04.993Z,2.90
2018-09-11T17:52:34.045Z,3.37
2018-09-11T17:55:02.841Z,2.70
2018-09-11T17:57:35.013Z,2.67
2018-09-11T18:00:05.774Z,3.10
2018-09-11T18:02:35.561Z,4.00
2018-09-11T18:05:04.713Z,2.80
2018-09-11T18:07:35.501Z,3.50
2018-09-11T18:10:08.034Z,2.90
2018-09-11T18:12:37.877Z,2.70
2018-09-11T18:15:07.685Z,2.60
2018-09-11T18:17:42.402Z,3.13
2018-09-11T18:20:22.845Z,3.20
2018-09-11T18:22:55.949Z,2.70
2018-09-11T18:25:27.917Z,2.67
2018-09-11T18:28:01.641Z,3.10
2018-09-11T18:30:30.373Z,3.13
2018-09-11T18:32:59.101Z,2.47
2018-09-11T18:35:34.782Z,2.37
2018-09-11T18:38:03.650Z,3.30
2018-09-11T18:40:32.373Z,2.70
2018-09-11T18:43:01.145Z,3.13
2018-09-11T18:45:30.917Z,3.43
2018-09-11T18:48:12.025Z,4.30
2018-09-11T18:50:42.798Z,3.30
2018-09-11T18:53:19.517Z,3.17
2018-09-11T18:55:52.265Z,4.27
2018-09-11T18:58:23.102Z,3.57
2018-09-11T19:00:52.981Z,3.03
2018-09-11T19:03:22.717Z,3.73
2018-09-11T19:05:55.409Z,4.10
2018-09-11T19:08:24.181Z,3.47
2018-09-11T19:10:59.705Z,3.80
2018-09-11T19:13:32.005Z,3.77
2018-09-11T19:16:00.813Z,4.20
2018-09-11T19:18:35.248Z,3.90
2018-09-11T19:21:14.017Z,3.43
2018-09-11T19:23:46.329Z,3.93
2018-09-11T19:26:18.093Z,3.00
2018-09-11T19:28:52.092Z,3.63
2018-09-11T19:31:26.013Z,4.10
2018-09-11T19:33:54.797Z,3.70
2018-09-11T19:36:26.813Z,3.57
2018-09-11T19:38:55.669Z,4.10
2018-09-11T19:41:26.537Z,4.07
2018-09-11T19:43:57.325Z,4.30
2018-09-11T19:46:26.121Z,4.10
2018-09-11T19:49:12.853Z,3.97
2018-09-11T19:51:45.974Z,4.30
2018-09-11T19:54:15.797Z,3.80
2018-09-11T19:56:58.125Z,4.20
2018-09-11T19:59:39.008Z,3.70
2018-09-11T20:02:14.733Z,3.80
2018-09-11T20:04:47.136Z,3.70
2018-09-11T20:07:19.874Z,3.97
2018-09-11T20:10:00.621Z,3.70
2018-09-11T20:12:31.521Z,4.20
2018-09-11T20:17:57.725Z,3.80
2018-09-11T20:20:33.928Z,4.20
2018-09-11T20:28:54.640Z,3.70
2018-09-11T20:31:36.465Z,3.60
2018-09-11T20:34:06.533Z,3.73
2018-09-11T20:36:41.273Z,4.63
2018-09-11T20:39:16.533Z,4.67
2018-09-11T20:41:45.333Z,3.70
2018-09-11T20:44:14.240Z,4.50
2018-09-11T20:46:43.069Z,4.60
2018-09-11T20:49:11.861Z,4.50
2018-09-11T20:51:58.342Z,3.30
2018-09-11T20:54:44.101Z,3.33
2018-09-11T20:57:22.981Z,3.40
2018-09-11T20:59:55.773Z,4.20
2018-09-11T21:02:29.565Z,4.47
2018-09-11T21:04:59.397Z,4.13
2018-09-11T21:07:29.165Z,3.87
2018-09-11T21:10:03.016Z,3.73
2018-09-11T21:12:32.784Z,3.67
2018-09-11T21:15:05.047Z,3.73
2018-09-11T21:17:34.041Z,3.93
2018-09-11T21:20:09.240Z,3.90
2018-09-11T21:22:38.129Z,3.83
2018-09-11T21:25:07.889Z,3.77
2018-09-11T21:27:53.337Z,3.67
2018-09-11T21:30:31.924Z,3.63
2018-09-11T21:33:00.689Z,4.10
2018-09-11T21:35:35.189Z,4.27
2018-09-11T21:38:06.125Z,3.47
2018-09-11T21:40:34.897Z,4.07
2018-09-11T21:43:21.616Z,4.13
2018-09-11T21:45:55.969Z,3.90
2018-09-11T21:48:34.817Z,3.80
2018-09-11T21:51:09.642Z,3.40
2018-09-11T21:53:38.500Z,3.90
2018-09-11T21:56:24.025Z,3.80
2018-09-11T21:58:53.805Z,3.50
2018-09-11T22:01:38.145Z,4.20
2018-09-11T22:04:14.444Z,3.83
2018-09-11T22:07:00.760Z,4.77
2018-09-11T22:09:29.608Z,4.50
2018-09-11T22:12:00.532Z,3.83
2018-09-11T22:14:30.216Z,3.57
2018-09-11T22:16:59.952Z,4.13
2018-09-11T22:19:33.780Z,3.67
2018-09-11T22:22:09.012Z,3.90
2018-09-11T22:24:39.773Z,3.40
2018-09-11T22:27:08.540Z,4.03
2018-09-11T22:29:56.104Z,4.30
2018-09-11T22:32:33.068Z,3.77
2018-09-11T22:35:03.820Z,4.80
2018-09-11T22:37:35.448Z,4.57
2018-09-11T22:40:28.196Z,4.73
2018-09-11T22:43:02.215Z,4.90
2018-09-11T22:45:32.984Z,4.77
2018-09-11T22:48:01.800Z,5.17
2018-09-11T22:50:38.212Z,5.30
2018-09-11T22:53:10.516Z,4.60
2018-09-11T22:55:51.458Z,4.50
2018-09-11T22:58:32.364Z,4.43
2018-09-11T23:01:06.556Z,4.03
2018-09-11T23:03:43.598Z,5.30
2018-09-11T23:06:15.968Z,4.90
2018-09-11T23:08:56.313Z,4.50
2018-09-11T23:11:31.139Z,3.83
2018-09-11T23:14:14.512Z,4.40
2018-09-11T23:16:43.264Z,4.13
2018-09-11T23:19:17.047Z,4.10
2018-09-11T23:22:02.396Z,4.53
2018-09-11T23:24:33.148Z,4.10
2018-09-11T23:27:01.948Z,4.10
2018-09-11T23:29:32.793Z,4.80
2018-09-11T23:32:01.572Z,4.23
2018-09-11T23:34:34.332Z,4.13
2018-09-11T23:37:08.816Z,4.57
2018-09-11T23:39:37.556Z,5.07
2018-09-11T23:44:59.664Z,5.03
2018-09-11T23:47:33.013Z,4.83
2018-09-11T23:50:03.855Z,5.10
2018-09-11T23:52:33.664Z,4.97
2018-09-11T23:55:13.167Z,4.57
2018-09-11T23:57:56.576Z,4.90
